sensor_id;sensor_type;location;lat;lon;timestamp;temperature;humidity
47174;DHT22;36730;49.036;9.094;2023-03-14T00:00:11;26.30;58.30
47174;DHT22;36730;49.036;9.094;2023-03-14T00:02:37;26.30;58.40
47174;DHT22;36730;49.036;9.094;2023-03-14T00:05:03;26.30;58.50
47174;DHT22;36730;49.036;9.094;2023-03-14T00:07:35;26.30;58.50
47174;DHT22;36730;49.036;9.094;2023-03-14T00:10:06;26.30;58.70
47174;DHT22;36730;49.036;9.094;2023-03-14T00:12:32;26.30;58.70
47174;DHT22;36730;49.036;9.094;2023-03-14T00:14:57;26.30;58.60
47174;DHT22;36730;49.036;9.094;2023-03-14T00:17:25;26.30;58.60
47174;DHT22;36730;49.036;9.094;2023-03-14T00:19:51;26.30;58.70
47174;DHT22;36730;49.036;9.094;2023-03-14T00:22:19;26.30;58.60
47174;DHT22;36730;49.036;9.094;2023-03-14T00:24:44;26.30;58.70
47174;DHT22;36730;49.036;9.094;2023-03-14T00:27:10;26.30;58.80
47174;DHT22;36730;49.036;9.094;2023-03-14T00:29:35;26.30;58.70
47174;DHT22;36730;49.036;9.094;2023-03-14T00:32:01;26.30;58.90
47174;DHT22;36730;49.036;9.094;2023-03-14T00:34:30;26.30;58.70
47174;DHT22;36730;49.036;9.094;2023-03-14T00:36:56;26.30;58.60
47174;DHT22;36730;49.036;9.094;2023-03-14T00:39:21;26.20;58.60
47174;DHT22;36730;49.036;9.094;2023-03-14T00:41:46;26.20;58.60
47174;DHT22;36730;49.036;9.094;2023-03-14T00:44:12;26.20;58.80
47174;DHT22;36730;49.036;9.094;2023-03-14T00:46:38;26.20;58.80
47174;DHT22;36730;49.036;9.094;2023-03-14T00:49:03;26.20;58.80
47174;DHT22;36730;49.036;9.094;2023-03-14T00:51:29;26.20;59.00
47174;DHT22;36730;49.036;9.094;2023-03-14T00:53:54;26.20;59.00
47174;DHT22;36730;49.036;9.094;2023-03-14T00:56:20;26.20;58.80
47174;DHT22;36730;49.036;9.094;2023-03-14T00:58:45;26.20;59.00
47174;DHT22;36730;49.036;9.094;2023-03-14T01:01:13;26.20;58.80
47174;DHT22;36730;49.036;9.094;2023-03-14T01:03:38;26.20;58.80
47174;DHT22;36730;49.036;9.094;2023-03-14T01:06:08;26.20;59.00
47174;DHT22;36730;49.036;9.094;2023-03-14T01:08:33;26.20;59.20
47174;DHT22;36730;49.036;9.094;2023-03-14T01:10:59;26.20;58.90
47174;DHT22;36730;49.036;9.094;2023-03-14T01:13:24;26.20;58.80
47174;DHT22;36730;49.036;9.094;2023-03-14T01:15:50;26.20;58.90
47174;DHT22;36730;49.036;9.094;2023-03-14T01:18:15;26.20;58.90
47174;DHT22;36730;49.036;9.094;2023-03-14T01:20:40;26.20;59.00
47174;DHT22;36730;49.036;9.094;2023-03-14T01:23:06;26.20;59.00
47174;DHT22;36730;49.036;9.094;2023-03-14T01:25:31;26.20;59.00
47174;DHT22;36730;49.036;9.094;2023-03-14T01:27:57;26.20;58.90
47174;DHT22;36730;49.036;9.094;2023-03-14T01:30:22;26.20;59.50
47174;DHT22;36730;49.036;9.094;2023-03-14T01:32:48;26.20;59.20
47174;DHT22;36730;49.036;9.094;2023-03-14T01:35:13;26.10;59.10
47174;DHT22;36730;49.036;9.094;2023-03-14T01:37:39;26.20;59.40
47174;DHT22;36730;49.036;9.094;2023-03-14T01:40:04;26.20;59.30
47174;DHT22;36730;49.036;9.094;2023-03-14T01:42:31;26.10;59.10
47174;DHT22;36730;49.036;9.094;2023-03-14T01:44:57;26.20;59.20
47174;DHT22;36730;49.036;9.094;2023-03-14T01:47:23;26.10;59.40
47174;DHT22;36730;49.036;9.094;2023-03-14T01:49:51;26.10;59.10
47174;DHT22;36730;49.036;9.094;2023-03-14T01:52:19;26.10;59.10
47174;DHT22;36730;49.036;9.094;2023-03-14T01:54:47;26.10;59.20
47174;DHT22;36730;49.036;9.094;2023-03-14T01:57:28;26.10;59.20
47174;DHT22;36730;49.036;9.094;2023-03-14T02:00:03;26.10;59.30
47174;DHT22;36730;49.036;9.094;2023-03-14T02:02:37;26.10;59.30
47174;DHT22;36730;49.036;9.094;2023-03-14T02:05:03;26.10;59.20
47174;DHT22;36730;49.036;9.094;2023-03-14T02:07:30;26.10;59.30
47174;DHT22;36730;49.036;9.094;2023-03-14T02:09:57;26.10;59.50
47174;DHT22;36730;49.036;9.094;2023-03-14T02:12:24;26.10;59.60
47174;DHT22;36730;49.036;9.094;2023-03-14T02:14:50;26.10;59.70
47174;DHT22;36730;49.036;9.094;2023-03-14T02:17:16;26.10;59.70
47174;DHT22;36730;49.036;9.094;2023-03-14T02:22:09;26.10;59.30
47174;DHT22;36730;49.036;9.094;2023-03-14T02:24:43;26.10;59.70
47174;DHT22;36730;49.036;9.094;2023-03-14T02:27:11;26.10;59.30
47174;DHT22;36730;49.036;9.094;2023-03-14T02:29:38;26.10;59.30
47174;DHT22;36730;49.036;9.094;2023-03-14T02:32:06;26.00;59.20
47174;DHT22;36730;49.036;9.094;2023-03-14T02:34:32;26.00;59.30
47174;DHT22;36730;49.036;9.094;2023-03-14T02:36:58;26.00;59.30
47174;DHT22;36730;49.036;9.094;2023-03-14T02:39:43;26.00;59.30
47174;DHT22;36730;49.036;9.094;2023-03-14T02:42:09;26.00;59.40
47174;DHT22;36730;49.036;9.094;2023-03-14T02:44:35;26.00;59.20
47174;DHT22;36730;49.036;9.094;2023-03-14T02:47:01;26.00;59.60
47174;DHT22;36730;49.036;9.094;2023-03-14T02:49:27;26.00;59.40
47174;DHT22;36730;49.036;9.094;2023-03-14T02:51:54;26.00;59.40
47174;DHT22;36730;49.036;9.094;2023-03-14T02:54:19;26.00;59.50
47174;DHT22;36730;49.036;9.094;2023-03-14T02:56:45;26.00;59.60
47174;DHT22;36730;49.036;9.094;2023-03-14T02:59:11;26.00;59.40
47174;DHT22;36730;49.036;9.094;2023-03-14T03:01:36;26.00;59.70
47174;DHT22;36730;49.036;9.094;2023-03-14T03:04:02;26.00;59.30
47174;DHT22;36730;49.036;9.094;2023-03-14T03:06:27;26.00;59.40
47174;DHT22;36730;49.036;9.094;2023-03-14T03:08:53;26.00;59.30
47174;DHT22;36730;49.036;9.094;2023-03-14T03:11:18;26.00;59.30
47174;DHT22;36730;49.036;9.094;2023-03-14T03:13:43;26.00;59.40
47174;DHT22;36730;49.036;9.094;2023-03-14T03:16:09;26.00;59.40
47174;DHT22;36730;49.036;9.094;2023-03-14T03:18:35;26.00;59.50
47174;DHT22;36730;49.036;9.094;2023-03-14T03:21:03;26.00;60.20
47174;DHT22;36730;49.036;9.094;2023-03-14T03:23:29;25.90;59.70
47174;DHT22;36730;49.036;9.094;2023-03-14T03:25:55;26.00;59.50
47174;DHT22;36730;49.036;9.094;2023-03-14T03:28:20;26.00;59.60
47174;DHT22;36730;49.036;9.094;2023-03-14T03:30:46;25.90;59.30
47174;DHT22;36730;49.036;9.094;2023-03-14T03:33:11;25.90;59.40
47174;DHT22;36730;49.036;9.094;2023-03-14T03:35:46;25.90;59.20
47174;DHT22;36730;49.036;9.094;2023-03-14T03:38:12;25.90;59.20
47174;DHT22;36730;49.036;9.094;2023-03-14T03:40:38;25.90;59.20
47174;DHT22;36730;49.036;9.094;2023-03-14T03:43:03;25.90;59.30
47174;DHT22;36730;49.036;9.094;2023-03-14T03:45:29;25.90;59.30
47174;DHT22;36730;49.036;9.094;2023-03-14T03:47:54;25.90;59.30
47174;DHT22;36730;49.036;9.094;2023-03-14T03:50:20;25.90;59.40
47174;DHT22;36730;49.036;9.094;2023-03-14T03:52:45;25.90;59.30
47174;DHT22;36730;49.036;9.094;2023-03-14T03:55:11;25.90;59.30
47174;DHT22;36730;49.036;9.094;2023-03-14T03:57:36;25.90;59.20
47174;DHT22;36730;49.036;9.094;2023-03-14T04:00:02;25.90;59.40
47174;DHT22;36730;49.036;9.094;2023-03-14T04:02:29;25.90;59.40
47174;DHT22;36730;49.036;9.094;2023-03-14T04:04:54;25.90;59.80
47174;DHT22;36730;49.036;9.094;2023-03-14T04:07:20;25.90;59.10
47174;DHT22;36730;49.036;9.094;2023-03-14T04:09:45;25.90;59.50
47174;DHT22;36730;49.036;9.094;2023-03-14T04:12:11;25.90;59.00
47174;DHT22;36730;49.036;9.094;2023-03-14T04:14:37;25.90;59.10
47174;DHT22;36730;49.036;9.094;2023-03-14T04:17:03;25.90;59.10
47174;DHT22;36730;49.036;9.094;2023-03-14T04:19:28;25.90;59.20
47174;DHT22;36730;49.036;9.094;2023-03-14T04:21:54;26.00;59.40
47174;DHT22;36730;49.036;9.094;2023-03-14T04:24:19;26.00;59.20
47174;DHT22;36730;49.036;9.094;2023-03-14T04:26:45;25.90;59.30
47174;DHT22;36730;49.036;9.094;2023-03-14T04:29:10;25.90;59.30
47174;DHT22;36730;49.036;9.094;2023-03-14T04:31:36;25.90;59.40
47174;DHT22;36730;49.036;9.094;2023-03-14T04:34:01;26.00;59.70
47174;DHT22;36730;49.036;9.094;2023-03-14T04:36:27;26.00;59.90
47174;DHT22;36730;49.036;9.094;2023-03-14T04:38:52;26.00;59.40
47174;DHT22;36730;49.036;9.094;2023-03-14T04:41:17;26.00;59.20
47174;DHT22;36730;49.036;9.094;2023-03-14T04:43:43;26.10;58.80
47174;DHT22;36730;49.036;9.094;2023-03-14T04:46:08;26.10;58.80
47174;DHT22;36730;49.036;9.094;2023-03-14T04:48:34;26.10;58.40
47174;DHT22;36730;49.036;9.094;2023-03-14T04:50:59;26.20;58.40
47174;DHT22;36730;49.036;9.094;2023-03-14T04:53:25;26.20;57.90
47174;DHT22;36730;49.036;9.094;2023-03-14T04:55:51;26.20;57.50
47174;DHT22;36730;49.036;9.094;2023-03-14T04:58:17;26.20;58.00
47174;DHT22;36730;49.036;9.094;2023-03-14T05:00:42;26.20;57.40
47174;DHT22;36730;49.036;9.094;2023-03-14T05:03:08;26.20;56.20
47174;DHT22;36730;49.036;9.094;2023-03-14T05:05:33;26.10;55.80
47174;DHT22;36730;49.036;9.094;2023-03-14T05:07:58;26.00;56.00
47174;DHT22;36730;49.036;9.094;2023-03-14T05:10:24;26.00;54.80
47174;DHT22;36730;49.036;9.094;2023-03-14T05:12:50;25.90;54.70
47174;DHT22;36730;49.036;9.094;2023-03-14T05:15:16;25.90;54.70
47174;DHT22;36730;49.036;9.094;2023-03-14T05:17:41;25.80;54.40
47174;DHT22;36730;49.036;9.094;2023-03-14T05:20:07;25.80;54.20
47174;DHT22;36730;49.036;9.094;2023-03-14T05:22:38;25.70;53.80
47174;DHT22;36730;49.036;9.094;2023-03-14T05:25:03;25.70;53.90
47174;DHT22;36730;49.036;9.094;2023-03-14T05:27:29;25.60;54.00
47174;DHT22;36730;49.036;9.094;2023-03-14T05:29:54;25.60;54.10
47174;DHT22;36730;49.036;9.094;2023-03-14T05:32:20;25.50;53.90
47174;DHT22;36730;49.036;9.094;2023-03-14T05:34:45;25.50;53.90
47174;DHT22;36730;49.036;9.094;2023-03-14T05:37:11;25.40;54.10
47174;DHT22;36730;49.036;9.094;2023-03-14T05:39:36;25.40;53.60
47174;DHT22;36730;49.036;9.094;2023-03-14T05:42:02;25.40;54.00
47174;DHT22;36730;49.036;9.094;2023-03-14T05:44:27;25.40;53.40
47174;DHT22;36730;49.036;9.094;2023-03-14T05:46:53;25.30;53.30
47174;DHT22;36730;49.036;9.094;2023-03-14T05:49:18;25.30;53.70
47174;DHT22;36730;49.036;9.094;2023-03-14T05:51:43;25.30;53.30
47174;DHT22;36730;49.036;9.094;2023-03-14T05:54:09;25.20;52.90
47174;DHT22;36730;49.036;9.094;2023-03-14T05:56:34;25.20;52.90
47174;DHT22;36730;49.036;9.094;2023-03-14T05:59:00;25.10;52.70
47174;DHT22;36730;49.036;9.094;2023-03-14T06:01:28;25.10;52.90
47174;DHT22;36730;49.036;9.094;2023-03-14T06:03:54;25.00;52.60
47174;DHT22;36730;49.036;9.094;2023-03-14T06:06:19;25.00;52.80
47174;DHT22;36730;49.036;9.094;2023-03-14T06:08:45;25.00;53.10
47174;DHT22;36730;49.036;9.094;2023-03-14T06:11:10;24.90;53.20
47174;DHT22;36730;49.036;9.094;2023-03-14T06:13:36;24.90;54.20
47174;DHT22;36730;49.036;9.094;2023-03-14T06:16:01;24.90;53.20
47174;DHT22;36730;49.036;9.094;2023-03-14T06:18:27;24.90;53.80
47174;DHT22;36730;49.036;9.094;2023-03-14T06:20:55;24.90;53.10
47174;DHT22;36730;49.036;9.094;2023-03-14T06:23:21;24.90;53.20
47174;DHT22;36730;49.036;9.094;2023-03-14T06:25:47;24.80;53.10
47174;DHT22;36730;49.036;9.094;2023-03-14T06:28:12;24.80;53.00
47174;DHT22;36730;49.036;9.094;2023-03-14T06:30:38;24.80;53.40
47174;DHT22;36730;49.036;9.094;2023-03-14T06:33:03;24.80;53.30
47174;DHT22;36730;49.036;9.094;2023-03-14T06:35:29;24.80;53.60
47174;DHT22;36730;49.036;9.094;2023-03-14T06:37:54;24.80;53.50
47174;DHT22;36730;49.036;9.094;2023-03-14T06:40:20;24.80;53.50
47174;DHT22;36730;49.036;9.094;2023-03-14T06:42:45;24.80;53.20
47174;DHT22;36730;49.036;9.094;2023-03-14T06:45:11;24.80;53.40
47174;DHT22;36730;49.036;9.094;2023-03-14T06:47:36;24.80;54.00
47174;DHT22;36730;49.036;9.094;2023-03-14T06:50:04;24.80;53.30
47174;DHT22;36730;49.036;9.094;2023-03-14T06:52:30;24.80;53.90
47174;DHT22;36730;49.036;9.094;2023-03-14T06:54:55;24.80;53.80
47174;DHT22;36730;49.036;9.094;2023-03-14T06:57:21;24.80;53.40
47174;DHT22;36730;49.036;9.094;2023-03-14T06:59:46;24.80;53.30
47174;DHT22;36730;49.036;9.094;2023-03-14T07:02:12;24.80;53.40
47174;DHT22;36730;49.036;9.094;2023-03-14T07:04:38;24.80;53.30
47174;DHT22;36730;49.036;9.094;2023-03-14T07:07:03;24.80;53.50
47174;DHT22;36730;49.036;9.094;2023-03-14T07:09:29;24.80;53.30
47174;DHT22;36730;49.036;9.094;2023-03-14T07:11:55;24.70;53.50
47174;DHT22;36730;49.036;9.094;2023-03-14T07:14:20;24.80;53.20
47174;DHT22;36730;49.036;9.094;2023-03-14T07:16:45;24.70;53.50
47174;DHT22;36730;49.036;9.094;2023-03-14T07:19:11;24.70;53.30
47174;DHT22;36730;49.036;9.094;2023-03-14T07:21:36;24.70;53.40
47174;DHT22;36730;49.036;9.094;2023-03-14T07:24:03;24.70;53.50
47174;DHT22;36730;49.036;9.094;2023-03-14T07:26:28;24.60;54.20
47174;DHT22;36730;49.036;9.094;2023-03-14T07:28:54;24.60;53.80
47174;DHT22;36730;49.036;9.094;2023-03-14T07:31:19;24.60;53.70
47174;DHT22;36730;49.036;9.094;2023-03-14T07:33:45;24.60;53.80
47174;DHT22;36730;49.036;9.094;2023-03-14T07:36:10;24.60;54.30
47174;DHT22;36730;49.036;9.094;2023-03-14T07:38:36;24.70;54.40
47174;DHT22;36730;49.036;9.094;2023-03-14T07:41:02;24.60;53.90
47174;DHT22;36730;49.036;9.094;2023-03-14T07:43:28;24.60;53.80
47174;DHT22;36730;49.036;9.094;2023-03-14T07:45:53;24.60;53.60
47174;DHT22;36730;49.036;9.094;2023-03-14T07:48:19;24.60;53.80
47174;DHT22;36730;49.036;9.094;2023-03-14T07:50:47;24.60;53.70
47174;DHT22;36730;49.036;9.094;2023-03-14T07:53:13;24.70;53.80
47174;DHT22;36730;49.036;9.094;2023-03-14T07:55:39;24.70;53.50
47174;DHT22;36730;49.036;9.094;2023-03-14T07:58:04;24.60;53.60
47174;DHT22;36730;49.036;9.094;2023-03-14T08:00:30;24.70;54.10
47174;DHT22;36730;49.036;9.094;2023-03-14T08:02:55;24.70;53.30
47174;DHT22;36730;49.036;9.094;2023-03-14T08:05:21;24.70;53.30
47174;DHT22;36730;49.036;9.094;2023-03-14T08:07:46;24.70;53.40
47174;DHT22;36730;49.036;9.094;2023-03-14T08:10:12;24.70;53.50
47174;DHT22;36730;49.036;9.094;2023-03-14T08:12:40;24.70;53.50
47174;DHT22;36730;49.036;9.094;2023-03-14T08:15:06;24.70;53.30
47174;DHT22;36730;49.036;9.094;2023-03-14T08:17:32;24.70;53.10
47174;DHT22;36730;49.036;9.094;2023-03-14T08:19:58;24.60;53.00
47174;DHT22;36730;49.036;9.094;2023-03-14T08:22:23;24.60;53.00
47174;DHT22;36730;49.036;9.094;2023-03-14T08:24:49;24.60;52.70
47174;DHT22;36730;49.036;9.094;2023-03-14T08:27:14;24.60;53.00
47174;DHT22;36730;49.036;9.094;2023-03-14T08:29:40;24.60;52.60
47174;DHT22;36730;49.036;9.094;2023-03-14T08:32:06;24.60;52.90
47174;DHT22;36730;49.036;9.094;2023-03-14T08:34:32;24.60;53.00
47174;DHT22;36730;49.036;9.094;2023-03-14T08:36:58;24.60;52.90
47174;DHT22;36730;49.036;9.094;2023-03-14T08:39:23;24.60;52.40
47174;DHT22;36730;49.036;9.094;2023-03-14T08:41:49;24.60;52.50
47174;DHT22;36730;49.036;9.094;2023-03-14T08:44:15;24.60;52.60
47174;DHT22;36730;49.036;9.094;2023-03-14T08:46:40;24.60;53.10
47174;DHT22;36730;49.036;9.094;2023-03-14T08:49:05;24.70;52.70
47174;DHT22;36730;49.036;9.094;2023-03-14T08:51:31;24.70;52.30
47174;DHT22;36730;49.036;9.094;2023-03-14T08:53:56;24.80;51.70
47174;DHT22;36730;49.036;9.094;2023-03-14T08:56:22;24.80;52.10
47174;DHT22;36730;49.036;9.094;2023-03-14T08:58:47;24.80;52.70
47174;DHT22;36730;49.036;9.094;2023-03-14T09:01:13;24.80;52.40
47174;DHT22;36730;49.036;9.094;2023-03-14T09:03:38;24.90;52.50
47174;DHT22;36730;49.036;9.094;2023-03-14T09:06:04;24.90;53.00
47174;DHT22;36730;49.036;9.094;2023-03-14T09:08:30;25.00;53.20
47174;DHT22;36730;49.036;9.094;2023-03-14T09:10:56;25.00;53.00
47174;DHT22;36730;49.036;9.094;2023-03-14T09:13:21;25.00;53.50
47174;DHT22;36730;49.036;9.094;2023-03-14T09:15:50;25.10;53.40
47174;DHT22;36730;49.036;9.094;2023-03-14T09:18:16;25.10;53.10
47174;DHT22;36730;49.036;9.094;2023-03-14T09:20:41;25.10;54.30
47174;DHT22;36730;49.036;9.094;2023-03-14T09:23:07;25.20;54.20
47174;DHT22;36730;49.036;9.094;2023-03-14T09:25:32;25.20;54.10
47174;DHT22;36730;49.036;9.094;2023-03-14T09:27:58;25.30;54.00
47174;DHT22;36730;49.036;9.094;2023-03-14T09:30:23;25.30;54.50
47174;DHT22;36730;49.036;9.094;2023-03-14T09:32:49;25.30;53.90
47174;DHT22;36730;49.036;9.094;2023-03-14T09:35:14;25.30;54.40
47174;DHT22;36730;49.036;9.094;2023-03-14T09:37:39;25.40;54.30
47174;DHT22;36730;49.036;9.094;2023-03-14T09:40:05;25.40;54.60
47174;DHT22;36730;49.036;9.094;2023-03-14T09:42:35;25.40;54.50
47174;DHT22;36730;49.036;9.094;2023-03-14T09:45:05;25.40;54.90
47174;DHT22;36730;49.036;9.094;2023-03-14T09:47:32;25.40;55.00
47174;DHT22;36730;49.036;9.094;2023-03-14T09:49:58;25.50;55.10
47174;DHT22;36730;49.036;9.094;2023-03-14T09:54:56;25.50;55.80
47174;DHT22;36730;49.036;9.094;2023-03-14T09:57:24;25.50;55.80
47174;DHT22;36730;49.036;9.094;2023-03-14T09:59:50;25.60;56.80
47174;DHT22;36730;49.036;9.094;2023-03-14T10:02:20;25.60;56.60
47174;DHT22;36730;49.036;9.094;2023-03-14T10:04:47;25.60;56.30
47174;DHT22;36730;49.036;9.094;2023-03-14T10:07:14;25.60;56.70
47174;DHT22;36730;49.036;9.094;2023-03-14T10:09:42;25.70;56.70
47174;DHT22;36730;49.036;9.094;2023-03-14T10:12:08;25.70;57.00
47174;DHT22;36730;49.036;9.094;2023-03-14T10:14:34;25.70;56.50
47174;DHT22;36730;49.036;9.094;2023-03-14T10:17:05;25.70;57.10
47174;DHT22;36730;49.036;9.094;2023-03-14T10:19:30;25.70;57.00
47174;DHT22;36730;49.036;9.094;2023-03-14T10:21:56;25.80;56.60
47174;DHT22;36730;49.036;9.094;2023-03-14T10:26:48;25.80;56.40
47174;DHT22;36730;49.036;9.094;2023-03-14T10:29:13;25.80;56.10
47174;DHT22;36730;49.036;9.094;2023-03-14T10:31:58;25.80;56.30
47174;DHT22;36730;49.036;9.094;2023-03-14T10:34:27;25.80;56.40
47174;DHT22;36730;49.036;9.094;2023-03-14T10:36:57;25.80;56.50
47174;DHT22;36730;49.036;9.094;2023-03-14T10:39:24;25.80;55.70
47174;DHT22;36730;49.036;9.094;2023-03-14T10:41:52;25.80;56.00
47174;DHT22;36730;49.036;9.094;2023-03-14T10:44:19;25.80;56.30
47174;DHT22;36730;49.036;9.094;2023-03-14T10:46:47;25.80;56.30
47174;DHT22;36730;49.036;9.094;2023-03-14T10:49:27;25.80;56.40
47174;DHT22;36730;49.036;9.094;2023-03-14T10:51:53;25.80;56.60
47174;DHT22;36730;49.036;9.094;2023-03-14T10:54:19;25.80;56.80
47174;DHT22;36730;49.036;9.094;2023-03-14T10:56:46;25.90;57.20
47174;DHT22;36730;49.036;9.094;2023-03-14T10:59:20;25.90;57.00
47174;DHT22;36730;49.036;9.094;2023-03-14T11:01:55;25.90;57.40
47174;DHT22;36730;49.036;9.094;2023-03-14T11:09:40;25.90;57.70
47174;DHT22;36730;49.036;9.094;2023-03-14T11:14:50;25.90;57.90
47174;DHT22;36730;49.036;9.094;2023-03-14T11:17:27;25.90;57.80
47174;DHT22;36730;49.036;9.094;2023-03-14T11:22:28;26.00;57.80
47174;DHT22;36730;49.036;9.094;2023-03-14T11:25:21;26.00;58.40
47174;DHT22;36730;49.036;9.094;2023-03-14T11:33:03;26.10;58.60
47174;DHT22;36730;49.036;9.094;2023-03-14T11:35:33;26.10;58.50
47174;DHT22;36730;49.036;9.094;2023-03-14T11:40:44;26.10;59.00
47174;DHT22;36730;49.036;9.094;2023-03-14T11:45:35;26.10;59.10
47174;DHT22;36730;49.036;9.094;2023-03-14T11:50:43;26.10;59.00
47174;DHT22;36730;49.036;9.094;2023-03-14T11:53:16;26.20;59.20
47174;DHT22;36730;49.036;9.094;2023-03-14T11:55:43;26.10;59.00
47174;DHT22;36730;49.036;9.094;2023-03-14T11:58:14;26.10;58.50
47174;DHT22;36730;49.036;9.094;2023-03-14T12:00:40;26.10;59.70
47174;DHT22;36730;49.036;9.094;2023-03-14T12:10:29;26.00;58.70
47174;DHT22;36730;49.036;9.094;2023-03-14T12:12:55;26.00;58.60
47174;DHT22;36730;49.036;9.094;2023-03-14T12:15:21;26.00;58.60
47174;DHT22;36730;49.036;9.094;2023-03-14T12:17:52;26.00;58.70
47174;DHT22;36730;49.036;9.094;2023-03-14T12:20:22;26.10;58.70
47174;DHT22;36730;49.036;9.094;2023-03-14T12:23:01;26.00;58.90
47174;DHT22;36730;49.036;9.094;2023-03-14T12:25:28;26.00;58.90
47174;DHT22;36730;49.036;9.094;2023-03-14T12:30:26;26.00;58.80
47174;DHT22;36730;49.036;9.094;2023-03-14T12:35:38;26.00;58.50
47174;DHT22;36730;49.036;9.094;2023-03-14T12:38:04;26.00;58.40
47174;DHT22;36730;49.036;9.094;2023-03-14T12:40:37;26.00;58.10
47174;DHT22;36730;49.036;9.094;2023-03-14T12:43:04;26.00;58.00
47174;DHT22;36730;49.036;9.094;2023-03-14T12:46:06;26.00;57.70
47174;DHT22;36730;49.036;9.094;2023-03-14T12:48:31;26.10;57.70
47174;DHT22;36730;49.036;9.094;2023-03-14T12:51:02;26.00;57.40
47174;DHT22;36730;49.036;9.094;2023-03-14T12:58:31;26.00;57.20
47174;DHT22;36730;49.036;9.094;2023-03-14T13:00:59;26.00;57.20
47174;DHT22;36730;49.036;9.094;2023-03-14T13:03:26;26.00;57.00
47174;DHT22;36730;49.036;9.094;2023-03-14T13:06:01;26.00;57.40
47174;DHT22;36730;49.036;9.094;2023-03-14T13:08:33;26.00;56.80
47174;DHT22;36730;49.036;9.094;2023-03-14T13:10:58;26.00;58.90
47174;DHT22;36730;49.036;9.094;2023-03-14T13:13:25;26.00;57.60
47174;DHT22;36730;49.036;9.094;2023-03-14T13:15:56;26.00;57.20
47174;DHT22;36730;49.036;9.094;2023-03-14T13:18:39;26.10;57.70
47174;DHT22;36730;49.036;9.094;2023-03-14T13:21:18;26.10;57.20
47174;DHT22;36730;49.036;9.094;2023-03-14T13:23:54;26.10;57.10
47174;DHT22;36730;49.036;9.094;2023-03-14T13:26:19;26.10;57.00
47174;DHT22;36730;49.036;9.094;2023-03-14T13:28:45;26.00;56.70
47174;DHT22;36730;49.036;9.094;2023-03-14T13:31:22;26.10;56.70
47174;DHT22;36730;49.036;9.094;2023-03-14T13:33:58;26.10;56.30
47174;DHT22;36730;49.036;9.094;2023-03-14T13:36:24;26.10;56.80
47174;DHT22;36730;49.036;9.094;2023-03-14T13:38:57;26.10;58.50
47174;DHT22;36730;49.036;9.094;2023-03-14T13:41:23;26.10;55.80
47174;DHT22;36730;49.036;9.094;2023-03-14T13:43:49;26.00;52.60
47174;DHT22;36730;49.036;9.094;2023-03-14T13:46:16;26.00;51.70
47174;DHT22;36730;49.036;9.094;2023-03-14T13:49:02;25.80;49.50
47174;DHT22;36730;49.036;9.094;2023-03-14T13:51:28;25.80;47.90
47174;DHT22;36730;49.036;9.094;2023-03-14T13:53:56;25.70;51.90
47174;DHT22;36730;49.036;9.094;2023-03-14T13:56:23;25.70;51.70
47174;DHT22;36730;49.036;9.094;2023-03-14T13:58:50;25.70;52.80
47174;DHT22;36730;49.036;9.094;2023-03-14T14:01:16;25.70;51.60
47174;DHT22;36730;49.036;9.094;2023-03-14T14:03:44;25.70;51.50
47174;DHT22;36730;49.036;9.094;2023-03-14T14:06:18;25.80;51.20
47174;DHT22;36730;49.036;9.094;2023-03-14T14:08:46;25.80;51.70
47174;DHT22;36730;49.036;9.094;2023-03-14T14:11:16;25.80;51.90
47174;DHT22;36730;49.036;9.094;2023-03-14T14:13:43;25.80;51.10
47174;DHT22;36730;49.036;9.094;2023-03-14T14:16:09;25.90;50.70
47174;DHT22;36730;49.036;9.094;2023-03-14T14:18:34;25.90;51.20
47174;DHT22;36730;49.036;9.094;2023-03-14T14:21:00;25.90;50.60
47174;DHT22;36730;49.036;9.094;2023-03-14T14:23:26;25.90;51.30
47174;DHT22;36730;49.036;9.094;2023-03-14T14:25:54;25.90;50.40
47174;DHT22;36730;49.036;9.094;2023-03-14T14:28:30;25.90;50.40
47174;DHT22;36730;49.036;9.094;2023-03-14T14:30:59;25.90;51.80
47174;DHT22;36730;49.036;9.094;2023-03-14T14:33:25;26.00;50.00
47174;DHT22;36730;49.036;9.094;2023-03-14T14:35:58;25.90;50.70
47174;DHT22;36730;49.036;9.094;2023-03-14T14:38:25;25.90;50.60
47174;DHT22;36730;49.036;9.094;2023-03-14T14:40:54;25.90;50.00
47174;DHT22;36730;49.036;9.094;2023-03-14T14:43:22;25.90;50.20
47174;DHT22;36730;49.036;9.094;2023-03-14T14:45:49;25.90;49.60
47174;DHT22;36730;49.036;9.094;2023-03-14T14:48:17;25.90;49.00
47174;DHT22;36730;49.036;9.094;2023-03-14T14:53:28;25.90;49.10
47174;DHT22;36730;49.036;9.094;2023-03-14T14:55:58;25.90;49.50
47174;DHT22;36730;49.036;9.094;2023-03-14T15:00:54;25.90;48.60
47174;DHT22;36730;49.036;9.094;2023-03-14T15:03:20;25.90;48.50
47174;DHT22;36730;49.036;9.094;2023-03-14T15:05:45;25.90;48.50
47174;DHT22;36730;49.036;9.094;2023-03-14T15:08:11;25.90;48.60
47174;DHT22;36730;49.036;9.094;2023-03-14T15:10:36;25.90;48.40
47174;DHT22;36730;49.036;9.094;2023-03-14T15:13:02;25.90;48.50
47174;DHT22;36730;49.036;9.094;2023-03-14T15:15:27;25.90;48.00
47174;DHT22;36730;49.036;9.094;2023-03-14T15:17:53;25.90;47.90
47174;DHT22;36730;49.036;9.094;2023-03-14T15:20:18;25.80;48.20
47174;DHT22;36730;49.036;9.094;2023-03-14T15:22:45;25.80;47.60
47174;DHT22;36730;49.036;9.094;2023-03-14T15:25:10;25.80;47.80
47174;DHT22;36730;49.036;9.094;2023-03-14T15:27:36;25.80;47.80
47174;DHT22;36730;49.036;9.094;2023-03-14T15:30:02;25.80;47.40
47174;DHT22;36730;49.036;9.094;2023-03-14T15:32:27;25.80;47.70
47174;DHT22;36730;49.036;9.094;2023-03-14T15:34:56;25.70;47.70
47174;DHT22;36730;49.036;9.094;2023-03-14T15:37:22;25.70;47.40
47174;DHT22;36730;49.036;9.094;2023-03-14T15:39:48;25.80;47.20
47174;DHT22;36730;49.036;9.094;2023-03-14T15:42:13;25.80;46.80
47174;DHT22;36730;49.036;9.094;2023-03-14T15:44:39;25.80;46.70
47174;DHT22;36730;49.036;9.094;2023-03-14T15:47:04;25.80;46.50
47174;DHT22;36730;49.036;9.094;2023-03-14T15:49:31;25.80;46.10
47174;DHT22;36730;49.036;9.094;2023-03-14T15:51:57;25.80;46.00
47174;DHT22;36730;49.036;9.094;2023-03-14T15:54:23;25.90;46.40
47174;DHT22;36730;49.036;9.094;2023-03-14T15:56:48;25.90;46.10
47174;DHT22;36730;49.036;9.094;2023-03-14T15:59:14;25.90;46.00
47174;DHT22;36730;49.036;9.094;2023-03-14T16:01:39;25.90;45.50
47174;DHT22;36730;49.036;9.094;2023-03-14T16:04:05;25.90;45.20
47174;DHT22;36730;49.036;9.094;2023-03-14T16:06:30;25.90;45.20
47174;DHT22;36730;49.036;9.094;2023-03-14T16:08:56;25.90;45.10
47174;DHT22;36730;49.036;9.094;2023-03-14T16:11:21;25.90;45.00
47174;DHT22;36730;49.036;9.094;2023-03-14T16:13:47;25.90;45.00
47174;DHT22;36730;49.036;9.094;2023-03-14T16:16:13;25.90;44.80
47174;DHT22;36730;49.036;9.094;2023-03-14T16:18:38;25.90;44.80
47174;DHT22;36730;49.036;9.094;2023-03-14T16:21:05;25.90;44.70